createdAt,value
2018-02-20T00:02:24.710Z,-2.60
2018-02-20T00:04:52.653Z,-2.70
2018-02-20T00:07:20.548Z,-2.70
2018-02-20T00:09:48.492Z,-2.80
2018-02-20T00:12:16.379Z,-2.80
2018-02-20T00:14:44.552Z,-2.80
2018-02-20T00:17:13.138Z,-2.90
2018-02-20T00:19:41.072Z,-2.90
2018-02-20T00:22:09.109Z,-3.00
2018-02-20T00:24:37.060Z,-3.00
2018-02-20T00:27:05.722Z,-3.00
2018-02-20T00:29:33.683Z,-3.00
2018-02-20T00:32:01.691Z,-3.10
2018-02-20T00:34:31.768Z,-3.10
2018-02-20T00:36:59.655Z,-3.10
2018-02-20T00:39:27.649Z,-3.20
2018-02-20T00:41:57.347Z,-3.30
2018-02-20T00:44:25.283Z,-3.40
2018-02-20T00:46:53.237Z,-3.40
2018-02-20T00:49:21.965Z,-3.40
2018-02-20T00:51:49.861Z,-3.40
2018-02-20T00:54:19.548Z,-3.40
2018-02-20T00:56:47.446Z,-3.50
2018-02-20T00:59:15.393Z,-3.50
2018-02-20T01:01:43.284Z,-3.50
2018-02-20T01:04:11.386Z,-3.50
2018-02-20T01:06:39.272Z,-3.60
2018-02-20T01:09:07.222Z,-3.60
2018-02-20T01:11:35.116Z,-3.60
2018-02-20T01:14:03.077Z,-3.60
2018-02-20T01:16:31.029Z,-3.60
2018-02-20T01:18:58.977Z,-3.60
2018-02-20T01:21:26.868Z,-3.60
2018-02-20T01:23:55.595Z,-3.80
2018-02-20T01:26:23.502Z,-3.80
2018-02-20T01:28:51.442Z,-3.80
2018-02-20T01:31:19.329Z,-3.80
2018-02-20T01:33:47.340Z,-3.80
2018-02-20T01:36:15.245Z,-3.80
2018-02-20T01:38:43.195Z,-3.80
2018-02-20T01:41:11.094Z,-3.90
2018-02-20T01:43:39.065Z,-4.00
2018-02-20T01:46:07.732Z,-4.00
2018-02-20T01:48:35.673Z,-4.00
2018-02-20T01:51:08.709Z,-3.90
2018-02-20T01:53:36.665Z,-3.90
2018-02-20T01:56:04.565Z,-3.90
2018-02-20T01:58:33.290Z,-3.90
2018-02-20T02:01:01.195Z,-3.90
2018-02-20T02:03:30.432Z,-4.00
2018-02-20T02:05:58.329Z,-4.00
2018-02-20T02:08:26.274Z,-4.00
2018-02-20T02:10:54.254Z,-4.10
2018-02-20T02:13:22.153Z,-4.10
2018-02-20T02:15:50.127Z,-4.10
2018-02-20T02:18:18.793Z,-4.20
2018-02-20T02:20:47.561Z,-4.20
2018-02-20T02:23:15.460Z,-4.20
2018-02-20T02:25:43.409Z,-4.30
2018-02-20T02:28:11.324Z,-4.30
2018-02-20T02:30:42.898Z,-4.40
2018-02-20T02:33:14.099Z,-4.40
2018-02-20T02:35:47.575Z,-4.30
2018-02-20T02:38:18.028Z,-4.40
2018-02-20T02:40:49.782Z,-4.40
2018-02-20T02:43:21.352Z,-4.50
2018-02-20T02:45:52.813Z,-4.50
2018-02-20T02:48:24.917Z,-4.50
2018-02-20T02:50:56.072Z,-4.50
2018-02-20T02:53:27.322Z,-4.30
2018-02-20T02:55:58.305Z,-4.40
2018-02-20T02:58:29.120Z,-4.30
2018-02-20T03:01:00.078Z,-4.40
2018-02-20T03:03:30.896Z,-4.50
2018-02-20T03:06:01.159Z,-4.50
2018-02-20T03:08:29.128Z,-4.60
2018-02-20T03:10:57.095Z,-4.60
2018-02-20T03:13:25.073Z,-4.50
2018-02-20T03:15:53.027Z,-4.50
2018-02-20T03:18:20.933Z,-4.60
2018-02-20T03:20:49.661Z,-4.60
2018-02-20T03:23:17.562Z,-4.60
2018-02-20T03:25:45.529Z,-4.60
2018-02-20T03:28:13.454Z,-4.50
2018-02-20T03:30:41.406Z,-4.50
2018-02-20T03:33:09.327Z,-4.60
2018-02-20T03:35:37.269Z,-4.70
2018-02-20T03:38:05.196Z,-4.60
2018-02-20T03:40:33.918Z,-4.80
2018-02-20T03:43:01.957Z,-4.80
2018-02-20T03:45:30.686Z,-4.80
2018-02-20T03:47:58.588Z,-4.80
2018-02-20T03:50:26.544Z,-4.70
2018-02-20T03:52:54.454Z,-4.70
2018-02-20T03:55:22.410Z,-4.80
2018-02-20T03:57:50.317Z,-4.80
2018-02-20T04:00:19.266Z,-4.80
2018-02-20T04:02:47.170Z,-4.80
2018-02-20T04:05:15.122Z,-4.80
2018-02-20T04:07:43.030Z,-4.80
2018-02-20T04:10:10.982Z,-4.80
2018-02-20T04:12:40.059Z,-4.70
2018-02-20T04:15:08.834Z,-4.50
2018-02-20T04:17:36.746Z,-4.50
2018-02-20T04:20:04.753Z,-4.50
2018-02-20T04:22:32.654Z,-4.30
2018-02-20T04:25:01.373Z,-4.30
2018-02-20T04:27:29.288Z,-4.30
2018-02-20T04:29:57.243Z,-4.30
2018-02-20T04:32:25.138Z,-4.30
2018-02-20T04:34:53.068Z,-4.30
2018-02-20T04:37:20.980Z,-4.20
2018-02-20T04:39:48.923Z,-4.10
2018-02-20T04:42:16.901Z,-3.90
2018-02-20T04:44:44.834Z,-3.90
2018-02-20T04:47:12.718Z,-3.80
2018-02-20T04:49:40.665Z,-3.70
2018-02-20T04:52:08.551Z,-3.70
2018-02-20T04:54:36.488Z,-3.60
2018-02-20T04:57:04.376Z,-3.50
2018-02-20T04:59:32.313Z,-3.60
2018-02-20T05:02:00.203Z,-3.50
2018-02-20T05:04:28.396Z,-3.60
2018-02-20T05:06:56.286Z,-3.60
2018-02-20T05:09:24.228Z,-3.60
2018-02-20T05:11:52.116Z,-3.40
2018-02-20T05:14:20.055Z,-3.30
2018-02-20T05:16:47.936Z,-3.20
2018-02-20T05:19:15.866Z,-3.10
2018-02-20T05:21:44.609Z,-3.10
2018-02-20T05:24:12.493Z,-3.20
2018-02-20T05:26:40.420Z,-3.20
2018-02-20T05:29:08.351Z,-3.30
2018-02-20T05:31:36.306Z,-3.20
2018-02-20T05:34:04.289Z,-3.10
2018-02-20T05:36:32.233Z,-3.10
2018-02-20T05:39:01.782Z,-3.00
2018-02-20T05:41:34.102Z,-2.80
2018-02-20T05:44:05.520Z,-2.90
2018-02-20T05:46:37.304Z,-2.80
2018-02-20T05:49:08.477Z,-2.80
2018-02-20T05:51:39.874Z,-2.70
2018-02-20T05:54:11.494Z,-2.70
2018-02-20T05:56:43.024Z,-2.80
2018-02-20T05:59:14.464Z,-2.90
2018-02-20T06:01:47.594Z,-2.90
2018-02-20T06:04:18.699Z,-2.80
2018-02-20T06:06:46.717Z,-2.80
2018-02-20T06:09:14.616Z,-2.70
2018-02-20T06:11:42.563Z,-2.70
2018-02-20T06:14:10.441Z,-2.60
2018-02-20T06:16:39.140Z,-2.80
2018-02-20T06:19:07.032Z,-2.80
2018-02-20T06:21:34.965Z,-2.70
2018-02-20T06:24:07.007Z,-2.90
2018-02-20T06:26:34.953Z,-2.90
2018-02-20T06:29:02.845Z,-3.00
2018-02-20T06:31:30.786Z,-3.00
2018-02-20T06:33:58.677Z,-3.00
2018-02-20T06:36:26.638Z,-3.00
2018-02-20T06:38:54.530Z,-2.90
2018-02-20T06:41:23.260Z,-2.80
2018-02-20T06:43:51.143Z,-2.80
2018-02-20T06:46:19.077Z,-2.80
2018-02-20T06:48:46.960Z,-2.70
2018-02-20T06:51:14.883Z,-2.70
2018-02-20T06:53:43.018Z,-2.60
2018-02-20T06:56:10.952Z,-2.60
2018-02-20T06:58:38.836Z,-2.60
2018-02-20T07:01:06.773Z,-2.50
2018-02-20T07:03:34.657Z,-2.50
2018-02-20T07:06:02.592Z,-2.40
2018-02-20T07:08:30.474Z,-2.40
2018-02-20T07:10:58.409Z,-2.40
2018-02-20T07:13:26.292Z,-2.30
2018-02-20T07:15:54.246Z,-2.40
2018-02-20T07:18:22.121Z,-2.40
2018-02-20T07:20:50.051Z,-2.40
2018-02-20T07:23:20.145Z,-2.50
2018-02-20T07:25:48.851Z,-2.50
2018-02-20T07:28:16.748Z,-2.50
2018-02-20T07:30:44.690Z,-2.50
2018-02-20T07:33:12.568Z,-2.50
2018-02-20T07:35:40.501Z,-2.50
2018-02-20T07:38:08.395Z,-2.50
2018-02-20T07:40:36.328Z,-2.40
2018-02-20T07:43:04.221Z,-2.40
2018-02-20T07:45:32.152Z,-2.30
2018-02-20T07:48:00.038Z,-2.20
2018-02-20T07:50:27.972Z,-2.20
2018-02-20T07:52:56.066Z,-2.10
2018-02-20T07:55:24.054Z,-1.90
2018-02-20T07:57:51.933Z,-1.80
2018-02-20T08:00:21.424Z,0.00
2018-02-20T08:02:49.304Z,0.00
2018-02-20T08:05:17.224Z,1.60
2018-02-20T08:07:45.087Z,3.00
2018-02-20T08:10:13.008Z,4.30
2018-02-20T08:12:40.883Z,5.50
2018-02-20T08:15:09.573Z,6.90
2018-02-20T08:17:37.450Z,6.90
2018-02-20T08:20:05.428Z,7.80
2018-02-20T08:22:33.539Z,8.40
2018-02-20T08:25:01.453Z,8.50
2018-02-20T08:27:29.326Z,9.30
2018-02-20T08:29:57.274Z,10.00
2018-02-20T08:32:25.155Z,10.40
2018-02-20T08:34:53.849Z,11.00
2018-02-20T08:37:22.532Z,11.50
2018-02-20T08:39:50.400Z,11.40
2018-02-20T08:42:19.122Z,7.90
2018-02-20T08:44:46.997Z,7.80
2018-02-20T08:47:14.925Z,7.50
2018-02-20T08:49:43.561Z,10.40
2018-02-20T08:52:12.155Z,10.40
2018-02-20T08:54:40.851Z,11.30
2018-02-20T08:57:09.141Z,11.30
2018-02-20T08:59:37.599Z,11.90
2018-02-20T09:02:05.536Z,12.60
2018-02-20T09:04:33.536Z,12.30
2018-02-20T09:07:01.465Z,11.50
2018-02-20T09:09:29.346Z,11.30
2018-02-20T09:11:57.276Z,12.20
2018-02-20T09:14:25.162Z,13.00
2018-02-20T09:16:53.089Z,13.70
2018-02-20T09:19:20.955Z,13.80
2018-02-20T09:21:50.864Z,13.60
2018-02-20T09:24:20.728Z,13.40
2018-02-20T09:26:49.981Z,13.90
2018-02-20T09:29:19.864Z,13.60
2018-02-20T09:31:47.784Z,14.20
2018-02-20T09:34:18.621Z,14.80
2018-02-20T09:36:48.715Z,14.40
2018-02-20T09:39:18.416Z,14.00
2018-02-20T09:41:48.907Z,13.90
2018-02-20T09:44:17.753Z,13.90
2018-02-20T09:46:47.959Z,13.80
2018-02-20T09:49:17.834Z,13.70
2018-02-20T09:51:47.457Z,14.70
2018-02-20T09:54:17.730Z,15.10
2018-02-20T09:56:45.871Z,15.00
2018-02-20T09:59:14.637Z,12.90
2018-02-20T10:01:44.628Z,13.30
2018-02-20T10:04:16.325Z,13.40
2018-02-20T10:06:44.249Z,13.40
2018-02-20T10:09:12.885Z,14.00
2018-02-20T10:11:40.861Z,14.00
2018-02-20T10:14:08.716Z,13.80
2018-02-20T10:16:37.411Z,13.10
2018-02-20T10:19:05.289Z,13.00
2018-02-20T10:21:33.222Z,13.80
2018-02-20T10:24:01.101Z,14.40
2018-02-20T10:26:29.809Z,15.30
2018-02-20T10:28:57.736Z,15.30
2018-02-20T10:31:25.683Z,16.10
2018-02-20T10:33:53.658Z,16.50
2018-02-20T10:36:21.583Z,16.60
2018-02-20T10:38:49.480Z,15.70
2018-02-20T10:41:17.464Z,15.00
2018-02-20T10:43:45.356Z,16.10
2018-02-20T10:46:13.296Z,16.70
2018-02-20T10:48:41.184Z,16.00
2018-02-20T10:51:09.134Z,16.50
2018-02-20T10:53:37.018Z,16.70
2018-02-20T10:56:04.995Z,16.10
2018-02-20T10:58:32.882Z,16.60
2018-02-20T11:01:01.578Z,16.90
2018-02-20T11:03:30.221Z,16.20
2018-02-20T11:05:58.149Z,16.20
2018-02-20T11:08:26.026Z,15.70
2018-02-20T11:10:53.952Z,16.50
2018-02-20T11:13:21.875Z,16.10
2018-02-20T11:15:49.837Z,14.60
2018-02-20T11:18:17.721Z,15.20
2018-02-20T11:20:45.650Z,15.20
2018-02-20T11:23:13.542Z,15.90
2018-02-20T11:25:42.281Z,15.30
2018-02-20T11:28:10.177Z,15.20
2018-02-20T11:30:38.126Z,15.00
2018-02-20T11:33:06.167Z,16.30
2018-02-20T11:35:34.051Z,16.40
2018-02-20T11:38:01.977Z,15.30
2018-02-20T11:40:29.860Z,15.20
2018-02-20T11:42:57.790Z,15.50
2018-02-20T11:45:25.674Z,16.40
2018-02-20T11:47:53.618Z,16.40
2018-02-20T11:50:22.264Z,15.70
2018-02-20T11:52:50.202Z,15.70
2018-02-20T11:55:18.087Z,15.60
2018-02-20T11:57:46.003Z,16.90
2018-02-20T12:00:14.426Z,16.90
2018-02-20T12:02:49.789Z,15.50
2018-02-20T12:05:17.667Z,15.00
2018-02-20T12:07:45.606Z,14.60
2018-02-20T12:10:13.505Z,15.00
2018-02-20T12:12:41.428Z,14.60
2018-02-20T12:15:09.313Z,14.80
2018-02-20T12:17:37.252Z,14.90
2018-02-20T12:20:05.128Z,15.20
2018-02-20T12:22:33.824Z,14.80
2018-02-20T12:25:01.713Z,14.80
2018-02-20T12:27:29.645Z,14.30
2018-02-20T12:29:58.278Z,13.70
2018-02-20T12:32:26.449Z,13.70
2018-02-20T12:34:54.344Z,15.10
2018-02-20T12:37:22.272Z,15.50
2018-02-20T12:39:50.147Z,15.70
2018-02-20T12:42:18.079Z,13.70
2018-02-20T12:44:46.902Z,14.00
2018-02-20T12:47:14.844Z,14.00
2018-02-20T12:49:43.489Z,14.60
2018-02-20T12:52:11.428Z,14.60
2018-02-20T12:54:39.307Z,13.90
2018-02-20T12:57:07.245Z,13.80
2018-02-20T12:59:35.111Z,13.20
2018-02-20T13:02:03.034Z,12.00
2018-02-20T13:04:30.963Z,12.90
2018-02-20T13:06:58.909Z,13.10
2018-02-20T13:09:26.855Z,13.80
2018-02-20T13:11:54.795Z,14.10
2018-02-20T13:14:22.664Z,14.70
2018-02-20T13:16:50.585Z,15.10
2018-02-20T13:19:18.472Z,14.40
2018-02-20T13:21:46.408Z,14.30
2018-02-20T13:24:14.717Z,13.70
2018-02-20T13:26:43.002Z,13.30
2018-02-20T13:29:10.897Z,14.10
2018-02-20T13:31:38.819Z,13.00
2018-02-20T13:34:06.773Z,12.70
2018-02-20T13:36:35.123Z,12.00
2018-02-20T13:39:03.108Z,12.20
2018-02-20T13:41:32.938Z,10.90
2018-02-20T13:44:00.808Z,11.60
2018-02-20T13:46:29.582Z,10.90
2018-02-20T13:48:57.466Z,10.90
2018-02-20T13:51:26.154Z,10.60
2018-02-20T13:53:57.984Z,10.50
2018-02-20T13:56:25.922Z,11.00
2018-02-20T13:58:53.814Z,11.10
2018-02-20T14:01:21.738Z,11.30
2018-02-20T14:03:49.626Z,10.80
2018-02-20T14:06:17.572Z,10.40
2018-02-20T14:08:45.472Z,9.70
2018-02-20T14:11:14.126Z,8.90
2018-02-20T14:13:42.060Z,8.80
2018-02-20T14:16:09.947Z,9.10
2018-02-20T14:18:37.894Z,9.00
2018-02-20T14:21:05.782Z,9.00
2018-02-20T14:23:40.076Z,8.80
2018-02-20T14:26:07.955Z,8.70
2018-02-20T14:28:35.896Z,8.70
2018-02-20T14:31:03.789Z,8.90
2018-02-20T14:33:31.709Z,8.60
2018-02-20T14:35:59.580Z,8.40
2018-02-20T14:38:27.509Z,7.70
2018-02-20T14:40:55.474Z,7.80
2018-02-20T14:43:23.415Z,7.50
2018-02-20T14:45:51.312Z,7.60
2018-02-20T14:48:19.245Z,7.70
2018-02-20T14:50:47.237Z,7.80
2018-02-20T14:53:16.352Z,7.40
2018-02-20T14:55:44.297Z,7.40
2018-02-20T14:58:12.229Z,7.40
2018-02-20T15:00:40.129Z,7.40
2018-02-20T15:03:09.008Z,7.50
2018-02-20T15:05:36.938Z,7.40
2018-02-20T15:08:04.941Z,7.30
2018-02-20T15:10:36.427Z,7.40
2018-02-20T15:13:04.669Z,7.30
2018-02-20T15:15:32.549Z,7.20
2018-02-20T15:18:01.684Z,6.80
2018-02-20T15:20:29.586Z,6.90
2018-02-20T15:22:57.517Z,6.90
2018-02-20T15:25:25.485Z,6.90
2018-02-20T15:27:53.359Z,6.80
2018-02-20T15:30:21.292Z,6.70
2018-02-20T15:32:49.169Z,6.60
2018-02-20T15:35:17.098Z,6.50
2018-02-20T15:37:44.968Z,6.40
2018-02-20T15:40:13.708Z,6.50
2018-02-20T15:42:41.586Z,6.50
2018-02-20T15:45:09.519Z,6.50
2018-02-20T15:47:37.390Z,6.50
2018-02-20T15:50:05.316Z,6.40
2018-02-20T15:52:37.360Z,6.30
2018-02-20T15:55:05.287Z,6.20
2018-02-20T15:57:33.167Z,6.20
2018-02-20T16:00:01.116Z,6.00
2018-02-20T16:02:29.004Z,6.10
2018-02-20T16:04:56.920Z,6.10
2018-02-20T16:07:24.803Z,6.10
2018-02-20T16:09:52.675Z,6.10
2018-02-20T16:12:21.369Z,5.90
2018-02-20T16:14:49.284Z,5.90
2018-02-20T16:17:17.273Z,5.90
2018-02-20T16:19:45.150Z,5.70
2018-02-20T16:22:13.100Z,5.60
2018-02-20T16:24:40.990Z,5.60
2018-02-20T16:27:08.924Z,5.50
2018-02-20T16:29:36.821Z,5.40
2018-02-20T16:32:04.740Z,5.30
2018-02-20T16:34:32.612Z,5.30
2018-02-20T16:37:00.543Z,5.20
2018-02-20T16:39:29.186Z,4.60
2018-02-20T16:41:57.117Z,4.60
2018-02-20T16:44:25.068Z,4.40
2018-02-20T16:46:53.766Z,4.20
2018-02-20T16:49:21.654Z,4.10
2018-02-20T16:51:49.532Z,4.10
2018-02-20T16:54:17.464Z,4.00
2018-02-20T16:56:46.107Z,3.70
2018-02-20T16:59:14.039Z,3.70
2018-02-20T17:01:41.927Z,3.70
2018-02-20T17:04:09.860Z,3.60
2018-02-20T17:06:37.761Z,3.50
2018-02-20T17:09:05.731Z,3.40
2018-02-20T17:11:33.614Z,3.20
2018-02-20T17:14:01.654Z,3.00
2018-02-20T17:16:29.533Z,2.90
2018-02-20T17:18:57.470Z,2.90
2018-02-20T17:21:26.222Z,3.00
2018-02-20T17:23:55.518Z,2.90
2018-02-20T17:26:23.421Z,3.00
2018-02-20T17:28:51.340Z,2.90
2018-02-20T17:31:19.229Z,2.90
2018-02-20T17:33:47.148Z,2.90
2018-02-20T17:36:15.036Z,3.00
2018-02-20T17:38:47.665Z,2.90
2018-02-20T17:41:15.821Z,3.00
2018-02-20T17:43:48.814Z,2.90
2018-02-20T17:46:16.700Z,2.80
2018-02-20T17:48:44.648Z,2.70
2018-02-20T17:51:12.620Z,2.60
2018-02-20T17:53:40.593Z,2.50
2018-02-20T17:56:08.637Z,2.40
2018-02-20T17:58:36.619Z,2.50
2018-02-20T18:01:04.580Z,2.30
2018-02-20T18:03:32.704Z,2.20
2018-02-20T18:06:01.360Z,2.20
2018-02-20T18:08:29.289Z,2.20
2018-02-20T18:10:57.161Z,2.20
2018-02-20T18:13:25.271Z,2.20
2018-02-20T18:15:53.204Z,2.10
2018-02-20T18:18:21.128Z,2.20
2018-02-20T18:20:49.014Z,2.10
2018-02-20T18:23:16.952Z,2.00
2018-02-20T18:25:44.835Z,1.80
2018-02-20T18:28:12.783Z,1.70
2018-02-20T18:30:40.660Z,1.60
2018-02-20T18:33:08.574Z,1.40
2018-02-20T18:35:36.463Z,1.30
2018-02-20T18:38:04.384Z,1.10
2018-02-20T18:40:32.696Z,1.00
2018-02-20T18:43:05.208Z,0.90
2018-02-20T18:45:33.105Z,0.90
2018-02-20T18:48:01.063Z,0.80
2018-02-20T18:50:29.064Z,0.70
2018-02-20T18:52:57.763Z,0.50
2018-02-20T18:55:25.659Z,0.50
2018-02-20T18:57:53.586Z,0.40
2018-02-20T19:00:22.254Z,0.20
2018-02-20T19:02:50.205Z,0.10
2018-02-20T19:05:18.091Z,0.10
2018-02-20T19:07:45.971Z,0.10
2018-02-20T19:10:13.911Z,0.10
2018-02-20T19:12:42.009Z,-0.10
2018-02-20T19:15:09.977Z,-0.10
2018-02-20T19:17:37.873Z,-0.20
2018-02-20T19:20:06.416Z,-0.30
2018-02-20T19:22:34.291Z,-0.30
2018-02-20T19:25:02.226Z,-0.40
2018-02-20T19:27:30.131Z,-0.50
2018-02-20T19:29:58.106Z,-0.60
2018-02-20T19:32:26.764Z,-0.60
2018-02-20T19:34:55.463Z,-0.70
2018-02-20T19:39:53.389Z,-0.90
2018-02-20T19:42:21.344Z,-1.00
2018-02-20T19:44:50.071Z,-1.00
2018-02-20T19:47:18.429Z,-1.00
2018-02-20T19:49:46.508Z,-1.00
2018-02-20T19:52:14.420Z,-1.00
2018-02-20T19:54:42.433Z,-1.00
2018-02-20T19:57:10.353Z,-1.10
2018-02-20T19:59:38.403Z,-1.20
2018-02-20T20:02:06.336Z,-1.20
2018-02-20T20:04:34.372Z,-1.30
2018-02-20T20:07:03.045Z,-1.30
2018-02-20T20:09:31.005Z,-1.40
2018-02-20T20:11:58.996Z,-1.40
2018-02-20T20:14:26.984Z,-1.40
2018-02-20T20:16:54.902Z,-1.40
2018-02-20T20:19:22.892Z,-1.50
2018-02-20T20:21:50.835Z,-1.60
2018-02-20T20:24:18.864Z,-1.60
2018-02-20T20:26:46.804Z,-1.60
2018-02-20T20:29:14.791Z,-1.60
2018-02-20T20:31:42.716Z,-1.60
2018-02-20T20:34:14.633Z,-1.70
2018-02-20T20:36:42.561Z,-1.80
2018-02-20T20:39:10.533Z,-1.80
2018-02-20T20:41:38.448Z,-1.80
2018-02-20T20:44:06.409Z,-1.90
2018-02-20T20:46:35.103Z,-1.90
2018-02-20T20:49:03.103Z,-2.00
2018-02-20T20:51:31.786Z,-2.10
2018-02-20T20:53:59.769Z,-2.10
2018-02-20T20:56:27.672Z,-2.10
2018-02-20T20:58:55.636Z,-2.00
2018-02-20T21:01:23.529Z,-2.10
2018-02-20T21:03:52.769Z,-2.10
2018-02-20T21:06:20.684Z,-2.20
2018-02-20T21:08:50.781Z,-2.20
2018-02-20T21:11:18.786Z,-2.20
2018-02-20T21:13:46.760Z,-2.30
2018-02-20T21:16:14.665Z,-2.30
2018-02-20T21:18:42.606Z,-2.40
2018-02-20T21:21:10.526Z,-2.40
2018-02-20T21:23:38.512Z,-2.40
2018-02-20T21:26:08.385Z,-2.50
2018-02-20T21:28:41.714Z,-2.50
2018-02-20T21:31:09.835Z,-2.50
2018-02-20T21:33:37.803Z,-2.60
2018-02-20T21:36:05.709Z,-2.70
2018-02-20T21:38:33.653Z,-2.70
2018-02-20T21:41:01.776Z,-2.70
2018-02-20T21:43:30.338Z,-2.70
2018-02-20T21:45:58.245Z,-2.80
2018-02-20T21:48:26.186Z,-2.80
2018-02-20T21:50:54.139Z,-2.80
2018-02-20T21:53:22.091Z,-2.80
2018-02-20T21:55:50.907Z,-2.80
2018-02-20T21:58:18.857Z,-2.80
2018-02-20T22:00:47.598Z,-2.70
2018-02-20T22:03:15.503Z,-2.80
2018-02-20T22:05:44.702Z,-2.70
2018-02-20T22:08:12.607Z,-2.70
2018-02-20T22:10:40.569Z,-2.80
2018-02-20T22:13:08.468Z,-2.70
2018-02-20T22:15:36.469Z,-2.60
2018-02-20T22:18:04.417Z,-2.50
2018-02-20T22:20:32.391Z,-2.40
2018-02-20T22:23:01.453Z,-2.30
2018-02-20T22:25:29.401Z,-2.20
2018-02-20T22:27:57.328Z,-2.00
2018-02-20T22:30:25.294Z,-1.90
2018-02-20T22:32:53.202Z,-1.80
2018-02-20T22:35:21.158Z,-1.70
2018-02-20T22:37:49.188Z,-1.70
2018-02-20T22:40:17.131Z,-1.60
2018-02-20T22:42:45.019Z,-1.70
2018-02-20T22:45:13.019Z,-1.60
2018-02-20T22:47:40.929Z,-1.60
2018-02-20T22:50:09.663Z,-1.40
2018-02-20T22:52:37.709Z,-1.40
2018-02-20T22:55:09.057Z,-1.30
2018-02-20T22:57:42.400Z,-1.20
2018-02-20T23:00:13.814Z,-1.10
2018-02-20T23:02:44.541Z,-1.10
2018-02-20T23:05:16.439Z,-1.00
2018-02-20T23:07:48.058Z,-0.90
2018-02-20T23:10:19.905Z,-0.90
2018-02-20T23:12:50.878Z,-0.90
2018-02-20T23:15:22.321Z,-0.90
2018-02-20T23:17:53.384Z,-1.00
2018-02-20T23:20:26.408Z,-0.90
2018-02-20T23:22:57.755Z,-0.90
2018-02-20T23:25:30.833Z,-0.80
2018-02-20T23:28:01.648Z,-0.80
2018-02-20T23:30:33.389Z,-0.70
2018-02-20T23:33:06.011Z,-0.60
2018-02-20T23:35:37.124Z,-0.70
2018-02-20T23:38:07.927Z,-0.70
2018-02-20T23:40:39.744Z,-0.80
2018-02-20T23:43:12.533Z,-0.90
2018-02-20T23:45:45.237Z,-0.90
2018-02-20T23:48:17.476Z,-1.00
2018-02-20T23:50:49.255Z,-1.10
2018-02-20T23:53:25.864Z,-1.30
2018-02-20T23:55:57.286Z,-1.40
2018-02-20T23:58:27.577Z,-1.40
